Chronik & Geschichte

Boeing Stearman am Flugplatz Konstanz

Mit seiner 107-jährigen Geschichte ist Konstanz der älteste Verkehrslandeplatz Deutschlands. Lesen Sie unsere Festschrift zum 100-jährigen Platzjubiläum oder entdecken Sie die ausführliche Flugplatzchronik auf der Website der Initiative PRO Flugplatz Konstanz.

Live am Platz

Die Bilder unserer Webcams werden alle 5 Minuten aktualisiert.

Sonnenaufgang:

06:33 UTC / 07:33 Lokal

Sonnenuntergang:

15:44 UTC / 16:44 Lokal

METAR (19.11.2019 03:20 UTC):

EDNY 190320Z AUTO 05003KT 9999 // BKN180/// M00/M01 Q1015
VFR

TAF (18.11.2019 23:00 UTC):

TAF EDNY 182300Z 1900/1924 VRB03KT 9999 BKN025

Alle Angaben unverbindlich und ohne Gewähr. Zeiten genähert.

Für den Verkehrslandeplatz Konstanz werden keine offiziellen Wetterinformationen ausgegeben. Daher werden zur Orientierung Daten des nahegelegenen Flughafens Friedrichshafen dargestellt.

Flugwetterdaten zur Verfügung gestellt von wippich.aero.